sensor_id;sensor_type;location;lat;lon;timestamp;temperature;humidity
1329;DHT22;658;48.820;9.354;2024-01-30T00:00:34;22.70;34.00
1329;DHT22;658;48.820;9.354;2024-01-30T00:04:34;22.60;33.90
1329;DHT22;658;48.820;9.354;2024-01-30T00:08:35;22.60;33.90
1329;DHT22;658;48.820;9.354;2024-01-30T00:12:35;22.60;33.90
1329;DHT22;658;48.820;9.354;2024-01-30T00:16:38;22.60;33.90
1329;DHT22;658;48.820;9.354;2024-01-30T00:20:39;22.60;33.90
1329;DHT22;658;48.820;9.354;2024-01-30T00:24:39;22.60;34.00
1329;DHT22;658;48.820;9.354;2024-01-30T00:28:43;22.60;33.90
1329;DHT22;658;48.820;9.354;2024-01-30T00:32:44;22.50;33.80
1329;DHT22;658;48.820;9.354;2024-01-30T00:36:45;22.50;33.80
1329;DHT22;658;48.820;9.354;2024-01-30T00:40:45;22.50;33.80
1329;DHT22;658;48.820;9.354;2024-01-30T00:44:46;22.50;33.80
1329;DHT22;658;48.820;9.354;2024-01-30T00:48:46;22.50;33.80
1329;DHT22;658;48.820;9.354;2024-01-30T00:52:47;22.50;33.70
1329;DHT22;658;48.820;9.354;2024-01-30T00:56:47;22.50;33.70
1329;DHT22;658;48.820;9.354;2024-01-30T01:00:50;22.50;33.70
1329;DHT22;658;48.820;9.354;2024-01-30T01:04:51;22.50;33.70
1329;DHT22;658;48.820;9.354;2024-01-30T01:08:51;22.50;33.70
1329;DHT22;658;48.820;9.354;2024-01-30T01:12:52;22.40;33.70
1329;DHT22;658;48.820;9.354;2024-01-30T01:16:52;22.40;33.70
1329;DHT22;658;48.820;9.354;2024-01-30T01:20:53;22.40;33.70
1329;DHT22;658;48.820;9.354;2024-01-30T01:24:53;22.40;33.70
1329;DHT22;658;48.820;9.354;2024-01-30T01:28:54;22.40;33.70
1329;DHT22;658;48.820;9.354;2024-01-30T01:32:57;22.40;33.70
1329;DHT22;658;48.820;9.354;2024-01-30T01:37:02;22.30;33.70
1329;DHT22;658;48.820;9.354;2024-01-30T01:41:03;22.30;33.70
1329;DHT22;658;48.820;9.354;2024-01-30T01:45:04;22.30;34.30
1329;DHT22;658;48.820;9.354;2024-01-30T01:49:06;22.30;33.70
1329;DHT22;658;48.820;9.354;2024-01-30T01:53:08;22.30;33.70
1329;DHT22;658;48.820;9.354;2024-01-30T01:57:09;22.30;33.70
1329;DHT22;658;48.820;9.354;2024-01-30T02:01:13;22.20;33.60
1329;DHT22;658;48.820;9.354;2024-01-30T02:05:15;22.30;33.70
1329;DHT22;658;48.820;9.354;2024-01-30T02:09:16;22.30;33.70
1329;DHT22;658;48.820;9.354;2024-01-30T02:13:16;22.20;33.60
1329;DHT22;658;48.820;9.354;2024-01-30T02:17:17;22.20;33.60
1329;DHT22;658;48.820;9.354;2024-01-30T02:21:18;22.20;33.70
1329;DHT22;658;48.820;9.354;2024-01-30T02:25:19;22.20;33.70
1329;DHT22;658;48.820;9.354;2024-01-30T02:29:23;22.20;33.70
1329;DHT22;658;48.820;9.354;2024-01-30T02:33:28;22.10;33.60
1329;DHT22;658;48.820;9.354;2024-01-30T02:37:29;22.10;33.60
1329;DHT22;658;48.820;9.354;2024-01-30T02:41:29;22.10;33.80
1329;DHT22;658;48.820;9.354;2024-01-30T02:45:32;22.10;33.60
1329;DHT22;658;48.820;9.354;2024-01-30T02:49:33;22.10;33.60
1329;DHT22;658;48.820;9.354;2024-01-30T02:53:33;22.10;33.60
1329;DHT22;658;48.820;9.354;2024-01-30T02:57:34;22.10;33.60
1329;DHT22;658;48.820;9.354;2024-01-30T03:01:46;22.00;33.60
1329;DHT22;658;48.820;9.354;2024-01-30T03:05:46;22.00;33.60
1329;DHT22;658;48.820;9.354;2024-01-30T03:09:47;22.00;33.70
1329;DHT22;658;48.820;9.354;2024-01-30T03:13:48;22.00;33.70
1329;DHT22;658;48.820;9.354;2024-01-30T03:17:49;22.00;33.60
1329;DHT22;658;48.820;9.354;2024-01-30T03:21:50;22.00;33.60
1329;DHT22;658;48.820;9.354;2024-01-30T03:25:51;22.00;33.70
1329;DHT22;658;48.820;9.354;2024-01-30T03:29:51;21.90;33.60
1329;DHT22;658;48.820;9.354;2024-01-30T03:33:52;21.90;33.60
1329;DHT22;658;48.820;9.354;2024-01-30T03:37:54;21.90;33.60
1329;DHT22;658;48.820;9.354;2024-01-30T03:41:57;21.90;33.60
1329;DHT22;658;48.820;9.354;2024-01-30T03:46:01;21.90;33.70
1329;DHT22;658;48.820;9.354;2024-01-30T03:50:02;21.90;33.60
1329;DHT22;658;48.820;9.354;2024-01-30T03:54:05;21.90;33.60
1329;DHT22;658;48.820;9.354;2024-01-30T03:58:05;21.90;33.60
1329;DHT22;658;48.820;9.354;2024-01-30T04:02:06;21.90;33.70
1329;DHT22;658;48.820;9.354;2024-01-30T04:06:07;21.90;33.70
1329;DHT22;658;48.820;9.354;2024-01-30T04:10:09;21.90;33.70
1329;DHT22;658;48.820;9.354;2024-01-30T04:14:10;21.90;33.70
1329;DHT22;658;48.820;9.354;2024-01-30T04:18:11;21.80;33.70
1329;DHT22;658;48.820;9.354;2024-01-30T04:22:11;21.80;33.70
1329;DHT22;658;48.820;9.354;2024-01-30T04:26:12;21.80;33.70
1329;DHT22;658;48.820;9.354;2024-01-30T04:30:12;21.80;33.70
1329;DHT22;658;48.820;9.354;2024-01-30T04:34:13;21.80;33.70
1329;DHT22;658;48.820;9.354;2024-01-30T04:38:14;21.80;33.70
1329;DHT22;658;48.820;9.354;2024-01-30T04:42:14;21.80;33.70
1329;DHT22;658;48.820;9.354;2024-01-30T04:46:15;21.80;33.70
1329;DHT22;658;48.820;9.354;2024-01-30T04:50:16;21.80;33.80
1329;DHT22;658;48.820;9.354;2024-01-30T04:54:16;21.80;33.70
1329;DHT22;658;48.820;9.354;2024-01-30T04:58:17;21.80;33.80
1329;DHT22;658;48.820;9.354;2024-01-30T05:02:17;21.80;33.80
1329;DHT22;658;48.820;9.354;2024-01-30T05:06:25;21.70;33.70
1329;DHT22;658;48.820;9.354;2024-01-30T05:10:26;21.70;33.80
1329;DHT22;658;48.820;9.354;2024-01-30T05:14:29;21.80;33.80
1329;DHT22;658;48.820;9.354;2024-01-30T05:18:29;21.80;33.90
1329;DHT22;658;48.820;9.354;2024-01-30T05:22:30;21.80;33.90
1329;DHT22;658;48.820;9.354;2024-01-30T05:26:30;21.80;33.90
1329;DHT22;658;48.820;9.354;2024-01-30T05:30:33;21.80;33.80
1329;DHT22;658;48.820;9.354;2024-01-30T05:34:35;21.80;33.90
1329;DHT22;658;48.820;9.354;2024-01-30T05:38:35;21.80;33.90
1329;DHT22;658;48.820;9.354;2024-01-30T05:42:36;21.80;33.90
1329;DHT22;658;48.820;9.354;2024-01-30T05:46:37;21.80;33.90
1329;DHT22;658;48.820;9.354;2024-01-30T05:50:37;21.80;33.90
1329;DHT22;658;48.820;9.354;2024-01-30T05:54:38;21.80;34.00
1329;DHT22;658;48.820;9.354;2024-01-30T05:58:38;21.80;34.00
1329;DHT22;658;48.820;9.354;2024-01-30T06:02:39;21.80;34.00
1329;DHT22;658;48.820;9.354;2024-01-30T06:06:40;21.80;34.00
1329;DHT22;658;48.820;9.354;2024-01-30T06:10:41;21.80;34.00
1329;DHT22;658;48.820;9.354;2024-01-30T06:14:42;21.80;34.30
1329;DHT22;658;48.820;9.354;2024-01-30T06:18:45;21.80;34.30
1329;DHT22;658;48.820;9.354;2024-01-30T06:22:45;21.80;34.50
1329;DHT22;658;48.820;9.354;2024-01-30T06:26:46;21.90;34.70
1329;DHT22;658;48.820;9.354;2024-01-30T06:30:46;21.90;34.80
1329;DHT22;658;48.820;9.354;2024-01-30T06:34:47;21.90;34.80
1329;DHT22;658;48.820;9.354;2024-01-30T06:38:47;21.90;34.90
1329;DHT22;658;48.820;9.354;2024-01-30T06:42:48;21.90;35.30
1329;DHT22;658;48.820;9.354;2024-01-30T06:46:48;22.00;35.70
1329;DHT22;658;48.820;9.354;2024-01-30T06:50:49;22.00;36.50
1329;DHT22;658;48.820;9.354;2024-01-30T06:54:52;22.00;36.40
1329;DHT22;658;48.820;9.354;2024-01-30T06:58:52;22.10;36.30
1329;DHT22;658;48.820;9.354;2024-01-30T07:02:53;22.10;36.30
1329;DHT22;658;48.820;9.354;2024-01-30T07:06:56;22.10;36.00
1329;DHT22;658;48.820;9.354;2024-01-30T07:10:57;22.10;35.90
1329;DHT22;658;48.820;9.354;2024-01-30T07:14:58;22.20;35.80
1329;DHT22;658;48.820;9.354;2024-01-30T07:19:00;22.20;35.70
1329;DHT22;658;48.820;9.354;2024-01-30T07:23:00;22.20;35.60
1329;DHT22;658;48.820;9.354;2024-01-30T07:27:01;22.20;35.40
1329;DHT22;658;48.820;9.354;2024-01-30T07:31:02;22.20;35.20
1329;DHT22;658;48.820;9.354;2024-01-30T07:35:03;22.30;35.10
1329;DHT22;658;48.820;9.354;2024-01-30T07:39:03;22.30;35.00
1329;DHT22;658;48.820;9.354;2024-01-30T07:43:06;22.30;34.90
1329;DHT22;658;48.820;9.354;2024-01-30T07:47:07;22.40;34.90
1329;DHT22;658;48.820;9.354;2024-01-30T07:51:08;22.40;34.80
1329;DHT22;658;48.820;9.354;2024-01-30T07:55:08;22.40;34.70
1329;DHT22;658;48.820;9.354;2024-01-30T07:59:10;22.40;34.70
1329;DHT22;658;48.820;9.354;2024-01-30T08:03:14;22.40;34.60
1329;DHT22;658;48.820;9.354;2024-01-30T08:07:16;22.40;34.40
1329;DHT22;658;48.820;9.354;2024-01-30T08:11:17;22.40;34.30
1329;DHT22;658;48.820;9.354;2024-01-30T08:15:19;22.50;34.30
1329;DHT22;658;48.820;9.354;2024-01-30T08:19:19;22.50;34.30
1329;DHT22;658;48.820;9.354;2024-01-30T08:23:20;22.50;34.10
1329;DHT22;658;48.820;9.354;2024-01-30T08:27:21;22.50;34.10
1329;DHT22;658;48.820;9.354;2024-01-30T08:31:21;22.50;34.00
1329;DHT22;658;48.820;9.354;2024-01-30T08:35:22;22.50;34.00
1329;DHT22;658;48.820;9.354;2024-01-30T08:39:22;22.50;33.90
1329;DHT22;658;48.820;9.354;2024-01-30T08:43:23;22.60;34.00
1329;DHT22;658;48.820;9.354;2024-01-30T08:47:26;22.60;33.90
1329;DHT22;658;48.820;9.354;2024-01-30T08:51:27;22.60;33.80
1329;DHT22;658;48.820;9.354;2024-01-30T08:55:27;22.70;33.80
1329;DHT22;658;48.820;9.354;2024-01-30T08:59:30;22.70;33.80
1329;DHT22;658;48.820;9.354;2024-01-30T09:03:31;22.70;33.70
1329;DHT22;658;48.820;9.354;2024-01-30T09:07:32;22.80;33.70
1329;DHT22;658;48.820;9.354;2024-01-30T09:11:32;22.80;33.60
1329;DHT22;658;48.820;9.354;2024-01-30T09:15:35;22.90;33.60
1329;DHT22;658;48.820;9.354;2024-01-30T09:19:36;22.90;33.40
1329;DHT22;658;48.820;9.354;2024-01-30T09:23:36;22.90;33.40
1329;DHT22;658;48.820;9.354;2024-01-30T09:27:37;23.00;33.40
1329;DHT22;658;48.820;9.354;2024-01-30T09:31:37;23.00;33.30
1329;DHT22;658;48.820;9.354;2024-01-30T09:35:40;23.00;33.20
1329;DHT22;658;48.820;9.354;2024-01-30T09:39:41;23.10;33.20
1329;DHT22;658;48.820;9.354;2024-01-30T09:43:42;23.20;33.20
1329;DHT22;658;48.820;9.354;2024-01-30T09:47:46;23.10;33.10
1329;DHT22;658;48.820;9.354;2024-01-30T09:51:48;23.20;33.10
1329;DHT22;658;48.820;9.354;2024-01-30T09:55:50;23.20;33.00
1329;DHT22;658;48.820;9.354;2024-01-30T09:59:54;23.30;33.00
1329;DHT22;658;48.820;9.354;2024-01-30T10:03:55;23.30;32.90
1329;DHT22;658;48.820;9.354;2024-01-30T10:07:56;23.40;32.90
1329;DHT22;658;48.820;9.354;2024-01-30T10:11:57;23.40;32.80
1329;DHT22;658;48.820;9.354;2024-01-30T10:15:58;23.40;32.70
1329;DHT22;658;48.820;9.354;2024-01-30T10:19:58;23.50;32.70
1329;DHT22;658;48.820;9.354;2024-01-30T10:23:59;23.50;32.60
1329;DHT22;658;48.820;9.354;2024-01-30T10:28:00;23.60;32.60
1329;DHT22;658;48.820;9.354;2024-01-30T10:32:01;23.60;32.80
1329;DHT22;658;48.820;9.354;2024-01-30T10:36:04;23.60;32.80
1329;DHT22;658;48.820;9.354;2024-01-30T10:40:05;23.60;33.00
1329;DHT22;658;48.820;9.354;2024-01-30T10:44:10;23.60;32.90
1329;DHT22;658;48.820;9.354;2024-01-30T10:48:11;23.70;32.90
1329;DHT22;658;48.820;9.354;2024-01-30T10:52:13;23.70;32.70
1329;DHT22;658;48.820;9.354;2024-01-30T10:56:16;23.70;32.60
1329;DHT22;658;48.820;9.354;2024-01-30T11:00:19;23.70;32.50
1329;DHT22;658;48.820;9.354;2024-01-30T11:04:23;23.70;32.50
1329;DHT22;658;48.820;9.354;2024-01-30T11:08:25;23.80;32.50
1329;DHT22;658;48.820;9.354;2024-01-30T11:12:29;23.70;32.40
1329;DHT22;658;48.820;9.354;2024-01-30T11:16:33;23.80;32.40
1329;DHT22;658;48.820;9.354;2024-01-30T11:20:33;23.70;32.40
1329;DHT22;658;48.820;9.354;2024-01-30T11:24:40;23.70;32.40
1329;DHT22;658;48.820;9.354;2024-01-30T11:28:42;23.70;32.40
1329;DHT22;658;48.820;9.354;2024-01-30T11:32:42;23.80;32.40
1329;DHT22;658;48.820;9.354;2024-01-30T11:36:45;23.70;32.30
1329;DHT22;658;48.820;9.354;2024-01-30T11:40:52;23.80;32.40
1329;DHT22;658;48.820;9.354;2024-01-30T11:44:53;23.80;32.40
1329;DHT22;658;48.820;9.354;2024-01-30T11:48:53;23.80;32.40
1329;DHT22;658;48.820;9.354;2024-01-30T11:52:57;23.80;32.40
1329;DHT22;658;48.820;9.354;2024-01-30T11:56:58;23.80;32.40
1329;DHT22;658;48.820;9.354;2024-01-30T12:01:01;23.80;32.40
1329;DHT22;658;48.820;9.354;2024-01-30T12:05:07;23.80;32.50
1329;DHT22;658;48.820;9.354;2024-01-30T12:09:09;23.80;32.40
1329;DHT22;658;48.820;9.354;2024-01-30T12:13:10;23.80;32.50
1329;DHT22;658;48.820;9.354;2024-01-30T12:17:32;23.80;32.50
1329;DHT22;658;48.820;9.354;2024-01-30T12:21:34;23.80;32.50
1329;DHT22;658;48.820;9.354;2024-01-30T12:25:34;23.80;32.50
1329;DHT22;658;48.820;9.354;2024-01-30T12:29:35;23.80;32.50
1329;DHT22;658;48.820;9.354;2024-01-30T12:33:36;23.80;32.50
1329;DHT22;658;48.820;9.354;2024-01-30T12:37:37;23.80;32.50
1329;DHT22;658;48.820;9.354;2024-01-30T12:41:40;23.80;32.60
1329;DHT22;658;48.820;9.354;2024-01-30T12:45:43;23.80;32.70
1329;DHT22;658;48.820;9.354;2024-01-30T12:49:44;23.80;32.70
1329;DHT22;658;48.820;9.354;2024-01-30T12:53:45;23.80;32.70
1329;DHT22;658;48.820;9.354;2024-01-30T12:57:48;23.80;32.80
1329;DHT22;658;48.820;9.354;2024-01-30T13:01:48;23.80;32.70
1329;DHT22;658;48.820;9.354;2024-01-30T13:05:49;23.80;32.70
1329;DHT22;658;48.820;9.354;2024-01-30T13:09:50;23.90;32.70
1329;DHT22;658;48.820;9.354;2024-01-30T13:13:50;24.00;32.60
1329;DHT22;658;48.820;9.354;2024-01-30T13:17:51;24.00;32.50
1329;DHT22;658;48.820;9.354;2024-01-30T13:21:54;24.00;32.40
1329;DHT22;658;48.820;9.354;2024-01-30T13:25:55;24.00;32.40
1329;DHT22;658;48.820;9.354;2024-01-30T13:29:58;24.00;32.40
1329;DHT22;658;48.820;9.354;2024-01-30T13:33:59;24.00;32.40
1329;DHT22;658;48.820;9.354;2024-01-30T13:37:59;24.00;32.40
1329;DHT22;658;48.820;9.354;2024-01-30T13:42:00;24.10;32.40
1329;DHT22;658;48.820;9.354;2024-01-30T13:46:01;24.20;32.30
1329;DHT22;658;48.820;9.354;2024-01-30T13:50:02;24.20;32.20
1329;DHT22;658;48.820;9.354;2024-01-30T13:54:03;24.20;32.10
1329;DHT22;658;48.820;9.354;2024-01-30T13:58:04;24.20;32.20
1329;DHT22;658;48.820;9.354;2024-01-30T14:02:06;24.10;32.20
1329;DHT22;658;48.820;9.354;2024-01-30T14:06:08;24.10;32.20
1329;DHT22;658;48.820;9.354;2024-01-30T14:10:09;24.10;32.30
1329;DHT22;658;48.820;9.354;2024-01-30T14:14:11;24.10;32.30
1329;DHT22;658;48.820;9.354;2024-01-30T14:18:12;24.00;32.30
1329;DHT22;658;48.820;9.354;2024-01-30T14:22:12;24.10;32.40
1329;DHT22;658;48.820;9.354;2024-01-30T14:26:13;24.10;32.40
1329;DHT22;658;48.820;9.354;2024-01-30T14:30:16;24.00;32.40
1329;DHT22;658;48.820;9.354;2024-01-30T14:34:19;23.90;32.30
1329;DHT22;658;48.820;9.354;2024-01-30T14:38:20;24.00;32.50
1329;DHT22;658;48.820;9.354;2024-01-30T14:42:20;23.90;32.40
1329;DHT22;658;48.820;9.354;2024-01-30T14:46:21;23.90;32.40
1329;DHT22;658;48.820;9.354;2024-01-30T14:50:22;23.80;32.50
1329;DHT22;658;48.820;9.354;2024-01-30T14:54:23;23.80;32.60
1329;DHT22;658;48.820;9.354;2024-01-30T14:58:26;23.80;32.60
1329;DHT22;658;48.820;9.354;2024-01-30T15:02:27;23.80;32.70
1329;DHT22;658;48.820;9.354;2024-01-30T15:06:28;23.70;32.70
1329;DHT22;658;48.820;9.354;2024-01-30T15:10:29;23.60;32.80
1329;DHT22;658;48.820;9.354;2024-01-30T15:14:29;23.60;32.80
1329;DHT22;658;48.820;9.354;2024-01-30T15:18:30;23.60;32.90
1329;DHT22;658;48.820;9.354;2024-01-30T15:22:33;23.60;33.00
1329;DHT22;658;48.820;9.354;2024-01-30T15:26:34;23.50;33.10
1329;DHT22;658;48.820;9.354;2024-01-30T15:30:34;23.50;33.20
1329;DHT22;658;48.820;9.354;2024-01-30T15:34:35;23.50;33.50
1329;DHT22;658;48.820;9.354;2024-01-30T15:38:36;23.40;33.50
1329;DHT22;658;48.820;9.354;2024-01-30T15:42:36;23.40;33.70
1329;DHT22;658;48.820;9.354;2024-01-30T15:46:37;23.40;33.80
1329;DHT22;658;48.820;9.354;2024-01-30T15:50:38;23.30;33.70
1329;DHT22;658;48.820;9.354;2024-01-30T15:54:40;23.30;33.80
1329;DHT22;658;48.820;9.354;2024-01-30T15:58:40;23.30;33.90
1329;DHT22;658;48.820;9.354;2024-01-30T16:02:41;23.30;33.90
1329;DHT22;658;48.820;9.354;2024-01-30T16:06:42;23.20;34.00
1329;DHT22;658;48.820;9.354;2024-01-30T16:10:43;23.20;34.00
1329;DHT22;658;48.820;9.354;2024-01-30T16:14:43;23.20;34.20
1329;DHT22;658;48.820;9.354;2024-01-30T16:18:44;23.20;34.20
1329;DHT22;658;48.820;9.354;2024-01-30T16:22:45;23.10;34.30
1329;DHT22;658;48.820;9.354;2024-01-30T16:26:46;23.10;34.40
1329;DHT22;658;48.820;9.354;2024-01-30T16:30:47;23.10;34.40
1329;DHT22;658;48.820;9.354;2024-01-30T16:34:48;23.00;34.30
1329;DHT22;658;48.820;9.354;2024-01-30T16:38:49;23.00;34.30
1329;DHT22;658;48.820;9.354;2024-01-30T16:42:49;23.00;34.50
1329;DHT22;658;48.820;9.354;2024-01-30T16:46:50;23.00;34.70
1329;DHT22;658;48.820;9.354;2024-01-30T16:50:50;23.00;35.30
1329;DHT22;658;48.820;9.354;2024-01-30T16:54:52;23.00;35.30
1329;DHT22;658;48.820;9.354;2024-01-30T16:58:53;23.00;36.00
1329;DHT22;658;48.820;9.354;2024-01-30T17:02:54;23.00;35.50
1329;DHT22;658;48.820;9.354;2024-01-30T17:06:54;23.00;35.50
1329;DHT22;658;48.820;9.354;2024-01-30T17:10:55;23.00;35.60
1329;DHT22;658;48.820;9.354;2024-01-30T17:14:56;23.00;35.40
1329;DHT22;658;48.820;9.354;2024-01-30T17:18:58;23.00;35.50
1329;DHT22;658;48.820;9.354;2024-01-30T17:22:59;23.00;35.40
1329;DHT22;658;48.820;9.354;2024-01-30T17:27:04;23.00;35.40
1329;DHT22;658;48.820;9.354;2024-01-30T17:31:05;23.10;35.50
1329;DHT22;658;48.820;9.354;2024-01-30T17:35:05;23.10;35.40
1329;DHT22;658;48.820;9.354;2024-01-30T17:39:06;23.00;35.30
1329;DHT22;658;48.820;9.354;2024-01-30T17:43:08;23.00;35.20
1329;DHT22;658;48.820;9.354;2024-01-30T17:47:11;23.00;35.20
1329;DHT22;658;48.820;9.354;2024-01-30T17:51:11;22.90;35.10
1329;DHT22;658;48.820;9.354;2024-01-30T17:55:12;22.90;35.10
1329;DHT22;658;48.820;9.354;2024-01-30T17:59:13;22.90;35.00
1329;DHT22;658;48.820;9.354;2024-01-30T18:03:13;22.90;35.10
1329;DHT22;658;48.820;9.354;2024-01-30T18:07:14;22.90;35.10
1329;DHT22;658;48.820;9.354;2024-01-30T18:11:15;22.90;35.10
1329;DHT22;658;48.820;9.354;2024-01-30T18:15:16;22.90;35.30
1329;DHT22;658;48.820;9.354;2024-01-30T18:19:16;22.90;35.50
1329;DHT22;658;48.820;9.354;2024-01-30T18:23:18;22.90;35.50
1329;DHT22;658;48.820;9.354;2024-01-30T18:27:19;23.00;35.60
1329;DHT22;658;48.820;9.354;2024-01-30T18:31:24;23.00;35.60
1329;DHT22;658;48.820;9.354;2024-01-30T18:35:27;23.00;35.50
1329;DHT22;658;48.820;9.354;2024-01-30T18:39:28;23.00;35.60
1329;DHT22;658;48.820;9.354;2024-01-30T18:43:29;23.00;35.60
1329;DHT22;658;48.820;9.354;2024-01-30T18:47:31;23.10;35.50
1329;DHT22;658;48.820;9.354;2024-01-30T18:51:32;23.10;35.50
1329;DHT22;658;48.820;9.354;2024-01-30T18:55:35;23.10;35.50
1329;DHT22;658;48.820;9.354;2024-01-30T18:59:37;23.10;35.60
1329;DHT22;658;48.820;9.354;2024-01-30T19:03:38;23.10;35.60
1329;DHT22;658;48.820;9.354;2024-01-30T19:07:39;23.10;35.60
1329;DHT22;658;48.820;9.354;2024-01-30T19:11:39;23.10;35.60
1329;DHT22;658;48.820;9.354;2024-01-30T19:15:45;23.10;35.60
1329;DHT22;658;48.820;9.354;2024-01-30T19:19:48;23.10;35.50
1329;DHT22;658;48.820;9.354;2024-01-30T19:23:48;23.10;35.70
1329;DHT22;658;48.820;9.354;2024-01-30T19:27:51;23.10;35.60
1329;DHT22;658;48.820;9.354;2024-01-30T19:31:53;23.20;35.60
1329;DHT22;658;48.820;9.354;2024-01-30T19:35:57;23.20;35.50
1329;DHT22;658;48.820;9.354;2024-01-30T19:40:00;23.20;35.50
1329;DHT22;658;48.820;9.354;2024-01-30T19:44:01;23.10;35.50
1329;DHT22;658;48.820;9.354;2024-01-30T19:48:02;23.10;35.50
1329;DHT22;658;48.820;9.354;2024-01-30T19:52:03;23.10;35.80
1329;DHT22;658;48.820;9.354;2024-01-30T19:56:07;23.10;35.70
1329;DHT22;658;48.820;9.354;2024-01-30T20:00:08;23.00;36.00
1329;DHT22;658;48.820;9.354;2024-01-30T20:04:13;23.00;36.00
1329;DHT22;658;48.820;9.354;2024-01-30T20:08:14;23.00;36.00
1329;DHT22;658;48.820;9.354;2024-01-30T20:12:15;23.00;36.00
1329;DHT22;658;48.820;9.354;2024-01-30T20:16:16;23.10;36.20
1329;DHT22;658;48.820;9.354;2024-01-30T20:20:17;23.10;36.30
1329;DHT22;658;48.820;9.354;2024-01-30T20:24:18;23.10;36.80
1329;DHT22;658;48.820;9.354;2024-01-30T20:28:18;23.10;36.00
1329;DHT22;658;48.820;9.354;2024-01-30T20:32:19;23.10;36.20
1329;DHT22;658;48.820;9.354;2024-01-30T20:36:20;23.10;36.30
1329;DHT22;658;48.820;9.354;2024-01-30T20:40:20;23.10;36.20
1329;DHT22;658;48.820;9.354;2024-01-30T20:44:21;23.10;36.10
1329;DHT22;658;48.820;9.354;2024-01-30T20:48:22;23.10;36.10
1329;DHT22;658;48.820;9.354;2024-01-30T20:52:22;23.10;36.10
1329;DHT22;658;48.820;9.354;2024-01-30T20:56:23;23.00;36.00
1329;DHT22;658;48.820;9.354;2024-01-30T21:00:24;23.00;36.10
1329;DHT22;658;48.820;9.354;2024-01-30T21:04:24;22.90;36.20
1329;DHT22;658;48.820;9.354;2024-01-30T21:08:28;23.00;36.10
1329;DHT22;658;48.820;9.354;2024-01-30T21:12:28;23.00;36.20
1329;DHT22;658;48.820;9.354;2024-01-30T21:16:29;23.00;36.10
1329;DHT22;658;48.820;9.354;2024-01-30T21:20:32;23.00;36.10
1329;DHT22;658;48.820;9.354;2024-01-30T21:24:33;23.00;36.00
1329;DHT22;658;48.820;9.354;2024-01-30T21:28:34;23.00;36.10
1329;DHT22;658;48.820;9.354;2024-01-30T21:32:37;23.00;36.00
1329;DHT22;658;48.820;9.354;2024-01-30T21:36:39;22.90;36.00
1329;DHT22;658;48.820;9.354;2024-01-30T21:40:39;22.90;36.20
1329;DHT22;658;48.820;9.354;2024-01-30T21:44:40;22.90;36.10
1329;DHT22;658;48.820;9.354;2024-01-30T21:48:45;23.00;36.30
1329;DHT22;658;48.820;9.354;2024-01-30T21:52:46;23.00;36.30
1329;DHT22;658;48.820;9.354;2024-01-30T21:56:47;23.00;36.20
1329;DHT22;658;48.820;9.354;2024-01-30T22:00:47;22.90;36.10
1329;DHT22;658;48.820;9.354;2024-01-30T22:04:48;22.90;36.30
1329;DHT22;658;48.820;9.354;2024-01-30T22:08:51;22.90;36.20
1329;DHT22;658;48.820;9.354;2024-01-30T22:12:51;22.90;36.10
1329;DHT22;658;48.820;9.354;2024-01-30T22:16:52;22.80;36.10
1329;DHT22;658;48.820;9.354;2024-01-30T22:20:52;22.80;36.10
1329;DHT22;658;48.820;9.354;2024-01-30T22:24:53;22.80;36.20
1329;DHT22;658;48.820;9.354;2024-01-30T22:28:53;22.70;36.10
1329;DHT22;658;48.820;9.354;2024-01-30T22:32:57;22.70;36.10
1329;DHT22;658;48.820;9.354;2024-01-30T22:36:58;22.70;36.10
1329;DHT22;658;48.820;9.354;2024-01-30T22:40:59;22.70;36.10
1329;DHT22;658;48.820;9.354;2024-01-30T22:45:02;22.60;36.00
1329;DHT22;658;48.820;9.354;2024-01-30T22:49:02;22.60;36.10
1329;DHT22;658;48.820;9.354;2024-01-30T22:53:03;22.60;36.10
1329;DHT22;658;48.820;9.354;2024-01-30T22:57:04;22.60;36.00
1329;DHT22;658;48.820;9.354;2024-01-30T23:01:05;22.60;36.10
1329;DHT22;658;48.820;9.354;2024-01-30T23:05:08;22.60;36.10
1329;DHT22;658;48.820;9.354;2024-01-30T23:09:14;22.50;36.10
1329;DHT22;658;48.820;9.354;2024-01-30T23:13:16;22.50;36.10
1329;DHT22;658;48.820;9.354;2024-01-30T23:17:17;22.50;36.10
1329;DHT22;658;48.820;9.354;2024-01-30T23:21:18;22.40;36.10
1329;DHT22;658;48.820;9.354;2024-01-30T23:25:19;22.40;36.10
1329;DHT22;658;48.820;9.354;2024-01-30T23:29:19;22.40;36.10
1329;DHT22;658;48.820;9.354;2024-01-30T23:33:20;22.40;36.10
1329;DHT22;658;48.820;9.354;2024-01-30T23:37:20;22.40;36.20
1329;DHT22;658;48.820;9.354;2024-01-30T23:41:21;22.40;36.20
1329;DHT22;658;48.820;9.354;2024-01-30T23:45:21;22.30;36.10
1329;DHT22;658;48.820;9.354;2024-01-30T23:49:27;22.30;36.20
1329;DHT22;658;48.820;9.354;2024-01-30T23:53:28;22.30;36.20
1329;DHT22;658;48.820;9.354;2024-01-30T23:57:28;22.30;36.20
